sensor_id;sensor_type;location;lat;lon;timestamp;temperature;humidity
36498;DHT22;22513;51.222;6.480;2024-02-04T00:00:32;21.00;56.10
36498;DHT22;22513;51.222;6.480;2024-02-04T00:02:58;21.00;56.10
36498;DHT22;22513;51.222;6.480;2024-02-04T00:05:24;21.00;56.10
36498;DHT22;22513;51.222;6.480;2024-02-04T00:07:49;21.00;56.10
36498;DHT22;22513;51.222;6.480;2024-02-04T00:10:15;21.00;56.10
36498;DHT22;22513;51.222;6.480;2024-02-04T00:12:42;21.00;56.10
36498;DHT22;22513;51.222;6.480;2024-02-04T00:15:08;21.00;56.10
36498;DHT22;22513;51.222;6.480;2024-02-04T00:17:34;21.00;56.10
36498;DHT22;22513;51.222;6.480;2024-02-04T00:20:00;21.00;56.20
36498;DHT22;22513;51.222;6.480;2024-02-04T00:22:27;21.00;56.10
36498;DHT22;22513;51.222;6.480;2024-02-04T00:24:53;21.00;56.10
36498;DHT22;22513;51.222;6.480;2024-02-04T00:27:18;21.00;56.10
36498;DHT22;22513;51.222;6.480;2024-02-04T00:29:44;21.00;56.20
36498;DHT22;22513;51.222;6.480;2024-02-04T00:32:09;21.00;56.10
36498;DHT22;22513;51.222;6.480;2024-02-04T00:34:35;21.00;56.10
36498;DHT22;22513;51.222;6.480;2024-02-04T00:37:01;21.00;56.10
36498;DHT22;22513;51.222;6.480;2024-02-04T00:39:26;21.00;56.10
36498;DHT22;22513;51.222;6.480;2024-02-04T00:41:52;21.00;56.10
36498;DHT22;22513;51.222;6.480;2024-02-04T00:44:17;21.00;56.10
36498;DHT22;22513;51.222;6.480;2024-02-04T00:46:44;21.00;56.10
36498;DHT22;22513;51.222;6.480;2024-02-04T00:49:09;21.00;56.10
36498;DHT22;22513;51.222;6.480;2024-02-04T00:51:35;21.00;56.10
36498;DHT22;22513;51.222;6.480;2024-02-04T00:54:01;21.00;56.10
36498;DHT22;22513;51.222;6.480;2024-02-04T00:56:26;21.00;56.10
36498;DHT22;22513;51.222;6.480;2024-02-04T00:58:52;21.00;56.10
36498;DHT22;22513;51.222;6.480;2024-02-04T01:01:17;21.00;56.10
36498;DHT22;22513;51.222;6.480;2024-02-04T01:03:44;21.00;56.10
36498;DHT22;22513;51.222;6.480;2024-02-04T01:06:10;21.00;56.10
36498;DHT22;22513;51.222;6.480;2024-02-04T01:08:36;21.00;56.10
36498;DHT22;22513;51.222;6.480;2024-02-04T01:11:04;21.00;56.10
36498;DHT22;22513;51.222;6.480;2024-02-04T01:13:30;21.00;56.10
36498;DHT22;22513;51.222;6.480;2024-02-04T01:15:55;21.00;56.10
36498;DHT22;22513;51.222;6.480;2024-02-04T01:18:21;21.00;56.10
36498;DHT22;22513;51.222;6.480;2024-02-04T01:20:46;21.00;56.10
36498;DHT22;22513;51.222;6.480;2024-02-04T01:23:12;21.00;56.10
36498;DHT22;22513;51.222;6.480;2024-02-04T01:25:38;21.00;56.10
36498;DHT22;22513;51.222;6.480;2024-02-04T01:28:04;21.00;56.10
36498;DHT22;22513;51.222;6.480;2024-02-04T01:30:30;21.00;56.10
36498;DHT22;22513;51.222;6.480;2024-02-04T01:32:56;21.00;56.10
36498;DHT22;22513;51.222;6.480;2024-02-04T01:35:22;21.00;56.10
36498;DHT22;22513;51.222;6.480;2024-02-04T01:37:48;21.00;56.10
36498;DHT22;22513;51.222;6.480;2024-02-04T01:40:14;21.00;56.10
36498;DHT22;22513;51.222;6.480;2024-02-04T01:42:40;21.00;56.10
36498;DHT22;22513;51.222;6.480;2024-02-04T01:45:05;21.00;56.10
36498;DHT22;22513;51.222;6.480;2024-02-04T01:47:32;21.00;56.10
36498;DHT22;22513;51.222;6.480;2024-02-04T01:49:58;21.00;56.10
36498;DHT22;22513;51.222;6.480;2024-02-04T01:52:24;21.00;56.10
36498;DHT22;22513;51.222;6.480;2024-02-04T01:54:50;21.00;56.10
36498;DHT22;22513;51.222;6.480;2024-02-04T01:57:16;21.00;56.10
36498;DHT22;22513;51.222;6.480;2024-02-04T01:59:42;21.00;56.10
36498;DHT22;22513;51.222;6.480;2024-02-04T02:02:09;21.00;56.10
36498;DHT22;22513;51.222;6.480;2024-02-04T02:04:35;21.00;56.10
36498;DHT22;22513;51.222;6.480;2024-02-04T02:07:00;21.00;56.10
36498;DHT22;22513;51.222;6.480;2024-02-04T02:09:28;21.00;56.10
36498;DHT22;22513;51.222;6.480;2024-02-04T02:12:24;21.00;56.10
36498;DHT22;22513;51.222;6.480;2024-02-04T02:14:53;21.00;56.10
36498;DHT22;22513;51.222;6.480;2024-02-04T02:17:27;21.00;56.10
36498;DHT22;22513;51.222;6.480;2024-02-04T02:20:02;21.00;56.10
36498;DHT22;22513;51.222;6.480;2024-02-04T02:22:51;21.00;56.10
36498;DHT22;22513;51.222;6.480;2024-02-04T02:25:20;21.00;56.10
36498;DHT22;22513;51.222;6.480;2024-02-04T02:27:50;21.00;56.10
36498;DHT22;22513;51.222;6.480;2024-02-04T02:30:17;21.00;56.10
36498;DHT22;22513;51.222;6.480;2024-02-04T02:32:44;21.00;56.10
36498;DHT22;22513;51.222;6.480;2024-02-04T02:35:12;21.00;56.10
36498;DHT22;22513;51.222;6.480;2024-02-04T02:40:34;21.00;56.10
36498;DHT22;22513;51.222;6.480;2024-02-04T02:43:03;21.00;56.10
36498;DHT22;22513;51.222;6.480;2024-02-04T02:45:30;21.00;56.10
36498;DHT22;22513;51.222;6.480;2024-02-04T02:47:57;20.90;56.00
36498;DHT22;22513;51.222;6.480;2024-02-04T02:50:23;21.00;56.10
36498;DHT22;22513;51.222;6.480;2024-02-04T02:52:49;21.00;56.10
36498;DHT22;22513;51.222;6.480;2024-02-04T02:55:15;21.00;56.10
36498;DHT22;22513;51.222;6.480;2024-02-04T02:57:40;21.00;56.10
36498;DHT22;22513;51.222;6.480;2024-02-04T03:02:36;21.00;56.80
36498;DHT22;22513;51.222;6.480;2024-02-04T03:05:01;21.00;56.10
36498;DHT22;22513;51.222;6.480;2024-02-04T03:07:27;21.00;56.10
36498;DHT22;22513;51.222;6.480;2024-02-04T03:09:53;21.00;56.10
36498;DHT22;22513;51.222;6.480;2024-02-04T03:12:19;21.00;56.10
36498;DHT22;22513;51.222;6.480;2024-02-04T03:14:45;21.00;56.10
36498;DHT22;22513;51.222;6.480;2024-02-04T03:17:11;21.00;56.10
36498;DHT22;22513;51.222;6.480;2024-02-04T03:19:37;21.00;56.10
36498;DHT22;22513;51.222;6.480;2024-02-04T03:22:03;20.90;56.10
36498;DHT22;22513;51.222;6.480;2024-02-04T03:24:28;21.00;56.10
36498;DHT22;22513;51.222;6.480;2024-02-04T03:26:54;21.00;56.10
36498;DHT22;22513;51.222;6.480;2024-02-04T03:29:19;21.00;56.10
36498;DHT22;22513;51.222;6.480;2024-02-04T03:31:45;21.00;56.10
36498;DHT22;22513;51.222;6.480;2024-02-04T03:34:11;21.00;56.10
36498;DHT22;22513;51.222;6.480;2024-02-04T03:36:37;21.00;56.10
36498;DHT22;22513;51.222;6.480;2024-02-04T03:39:06;21.00;56.10
36498;DHT22;22513;51.222;6.480;2024-02-04T03:41:32;21.00;56.10
36498;DHT22;22513;51.222;6.480;2024-02-04T03:43:57;21.00;56.10
36498;DHT22;22513;51.222;6.480;2024-02-04T03:46:23;21.00;56.10
36498;DHT22;22513;51.222;6.480;2024-02-04T03:48:48;21.00;56.10
36498;DHT22;22513;51.222;6.480;2024-02-04T03:51:18;21.00;56.10
36498;DHT22;22513;51.222;6.480;2024-02-04T03:53:44;21.00;56.10
36498;DHT22;22513;51.222;6.480;2024-02-04T03:56:10;21.00;56.10
36498;DHT22;22513;51.222;6.480;2024-02-04T03:58:36;21.00;56.10
36498;DHT22;22513;51.222;6.480;2024-02-04T04:01:02;21.00;56.10
36498;DHT22;22513;51.222;6.480;2024-02-04T04:03:27;21.00;56.10
36498;DHT22;22513;51.222;6.480;2024-02-04T04:05:53;21.00;56.10
36498;DHT22;22513;51.222;6.480;2024-02-04T04:08:19;21.00;56.10
36498;DHT22;22513;51.222;6.480;2024-02-04T04:10:45;21.00;56.10
36498;DHT22;22513;51.222;6.480;2024-02-04T04:13:14;21.00;56.10
36498;DHT22;22513;51.222;6.480;2024-02-04T04:15:39;21.00;56.10
36498;DHT22;22513;51.222;6.480;2024-02-04T04:18:06;21.00;56.10
36498;DHT22;22513;51.222;6.480;2024-02-04T04:20:32;21.00;56.10
36498;DHT22;22513;51.222;6.480;2024-02-04T04:22:57;21.00;56.10
36498;DHT22;22513;51.222;6.480;2024-02-04T04:25:23;20.90;56.00
36498;DHT22;22513;51.222;6.480;2024-02-04T04:27:48;21.00;56.10
36498;DHT22;22513;51.222;6.480;2024-02-04T04:32:43;21.00;56.10
36498;DHT22;22513;51.222;6.480;2024-02-04T04:35:09;21.00;56.10
36498;DHT22;22513;51.222;6.480;2024-02-04T04:37:34;21.00;56.10
36498;DHT22;22513;51.222;6.480;2024-02-04T04:40:00;21.00;56.10
36498;DHT22;22513;51.222;6.480;2024-02-04T04:42:25;21.00;56.10
36498;DHT22;22513;51.222;6.480;2024-02-04T04:44:51;21.00;56.10
36498;DHT22;22513;51.222;6.480;2024-02-04T04:47:16;21.00;56.10
36498;DHT22;22513;51.222;6.480;2024-02-04T04:49:42;21.00;56.10
36498;DHT22;22513;51.222;6.480;2024-02-04T04:52:07;21.00;56.10
36498;DHT22;22513;51.222;6.480;2024-02-04T04:54:33;21.00;56.10
36498;DHT22;22513;51.222;6.480;2024-02-04T04:56:58;21.00;56.10
36498;DHT22;22513;51.222;6.480;2024-02-04T04:59:24;21.00;56.10
36498;DHT22;22513;51.222;6.480;2024-02-04T05:01:50;21.00;56.10
36498;DHT22;22513;51.222;6.480;2024-02-04T05:04:16;20.90;56.00
36498;DHT22;22513;51.222;6.480;2024-02-04T05:06:44;21.00;56.10
36498;DHT22;22513;51.222;6.480;2024-02-04T05:09:10;20.90;56.00
36498;DHT22;22513;51.222;6.480;2024-02-04T05:11:35;21.00;56.10
36498;DHT22;22513;51.222;6.480;2024-02-04T05:14:01;21.00;56.10
36498;DHT22;22513;51.222;6.480;2024-02-04T05:16:26;21.00;56.10
36498;DHT22;22513;51.222;6.480;2024-02-04T05:18:52;21.00;56.10
36498;DHT22;22513;51.222;6.480;2024-02-04T05:21:17;21.00;56.10
36498;DHT22;22513;51.222;6.480;2024-02-04T05:23:43;21.00;56.10
36498;DHT22;22513;51.222;6.480;2024-02-04T05:26:09;21.00;56.10
36498;DHT22;22513;51.222;6.480;2024-02-04T05:28:34;21.00;56.00
36498;DHT22;22513;51.222;6.480;2024-02-04T05:31:01;21.00;56.10
36498;DHT22;22513;51.222;6.480;2024-02-04T05:33:28;21.00;56.10
36498;DHT22;22513;51.222;6.480;2024-02-04T05:35:53;21.00;56.10
36498;DHT22;22513;51.222;6.480;2024-02-04T05:38:20;21.00;56.10
36498;DHT22;22513;51.222;6.480;2024-02-04T05:40:46;21.00;56.10
36498;DHT22;22513;51.222;6.480;2024-02-04T05:43:11;21.00;56.10
36498;DHT22;22513;51.222;6.480;2024-02-04T05:45:37;21.00;56.10
36498;DHT22;22513;51.222;6.480;2024-02-04T05:48:07;21.00;56.00
36498;DHT22;22513;51.222;6.480;2024-02-04T05:50:32;21.00;56.00
36498;DHT22;22513;51.222;6.480;2024-02-04T05:52:58;21.00;56.10
36498;DHT22;22513;51.222;6.480;2024-02-04T05:55:23;21.00;56.10
36498;DHT22;22513;51.222;6.480;2024-02-04T05:57:49;20.90;56.00
36498;DHT22;22513;51.222;6.480;2024-02-04T06:00:15;21.00;56.10
36498;DHT22;22513;51.222;6.480;2024-02-04T06:02:41;21.00;56.10
36498;DHT22;22513;51.222;6.480;2024-02-04T06:05:09;21.00;56.10
36498;DHT22;22513;51.222;6.480;2024-02-04T06:07:34;20.90;56.00
36498;DHT22;22513;51.222;6.480;2024-02-04T06:10:00;20.90;56.00
36498;DHT22;22513;51.222;6.480;2024-02-04T06:12:28;21.00;56.10
36498;DHT22;22513;51.222;6.480;2024-02-04T06:14:54;21.00;56.10
36498;DHT22;22513;51.222;6.480;2024-02-04T06:17:20;21.00;56.10
36498;DHT22;22513;51.222;6.480;2024-02-04T06:19:45;21.00;56.10
36498;DHT22;22513;51.222;6.480;2024-02-04T06:22:11;21.00;56.10
36498;DHT22;22513;51.222;6.480;2024-02-04T06:24:37;21.00;56.10
36498;DHT22;22513;51.222;6.480;2024-02-04T06:27:04;21.00;56.10
36498;DHT22;22513;51.222;6.480;2024-02-04T06:29:30;21.00;56.00
36498;DHT22;22513;51.222;6.480;2024-02-04T06:31:55;21.00;56.10
36498;DHT22;22513;51.222;6.480;2024-02-04T06:34:21;21.00;56.10
36498;DHT22;22513;51.222;6.480;2024-02-04T06:36:47;21.00;56.10
36498;DHT22;22513;51.222;6.480;2024-02-04T06:39:13;21.00;56.00
36498;DHT22;22513;51.222;6.480;2024-02-04T06:41:39;21.00;56.00
36498;DHT22;22513;51.222;6.480;2024-02-04T06:44:05;21.00;56.00
36498;DHT22;22513;51.222;6.480;2024-02-04T06:46:31;21.00;56.10
36498;DHT22;22513;51.222;6.480;2024-02-04T06:48:57;21.00;56.10
36498;DHT22;22513;51.222;6.480;2024-02-04T06:51:23;21.00;56.10
36498;DHT22;22513;51.222;6.480;2024-02-04T06:53:48;21.00;56.10
36498;DHT22;22513;51.222;6.480;2024-02-04T06:56:14;21.00;56.10
36498;DHT22;22513;51.222;6.480;2024-02-04T06:58:41;21.00;56.00
36498;DHT22;22513;51.222;6.480;2024-02-04T07:01:07;21.00;56.10
36498;DHT22;22513;51.222;6.480;2024-02-04T07:03:32;21.00;56.00
36498;DHT22;22513;51.222;6.480;2024-02-04T07:05:59;21.00;56.10
36498;DHT22;22513;51.222;6.480;2024-02-04T07:08:25;21.00;56.10
36498;DHT22;22513;51.222;6.480;2024-02-04T07:10:51;21.00;56.20
36498;DHT22;22513;51.222;6.480;2024-02-04T07:13:17;21.00;56.20
36498;DHT22;22513;51.222;6.480;2024-02-04T07:15:43;21.00;56.30
36498;DHT22;22513;51.222;6.480;2024-02-04T07:18:09;21.00;56.30
36498;DHT22;22513;51.222;6.480;2024-02-04T07:20:34;21.00;56.40
36498;DHT22;22513;51.222;6.480;2024-02-04T07:23:00;21.00;56.50
36498;DHT22;22513;51.222;6.480;2024-02-04T07:25:26;21.00;56.60
36498;DHT22;22513;51.222;6.480;2024-02-04T07:27:51;21.00;56.70
36498;DHT22;22513;51.222;6.480;2024-02-04T07:30:17;21.00;56.80
36498;DHT22;22513;51.222;6.480;2024-02-04T07:32:43;21.00;56.90
36498;DHT22;22513;51.222;6.480;2024-02-04T07:35:10;21.00;57.00
36498;DHT22;22513;51.222;6.480;2024-02-04T07:37:36;21.10;57.20
36498;DHT22;22513;51.222;6.480;2024-02-04T07:40:02;21.10;57.30
36498;DHT22;22513;51.222;6.480;2024-02-04T07:42:27;21.00;57.40
36498;DHT22;22513;51.222;6.480;2024-02-04T07:44:53;21.00;57.50
36498;DHT22;22513;51.222;6.480;2024-02-04T07:47:19;21.00;57.70
36498;DHT22;22513;51.222;6.480;2024-02-04T07:49:47;21.10;57.80
36498;DHT22;22513;51.222;6.480;2024-02-04T07:52:13;21.10;57.90
36498;DHT22;22513;51.222;6.480;2024-02-04T07:54:39;21.10;58.00
36498;DHT22;22513;51.222;6.480;2024-02-04T07:57:04;21.00;58.00
36498;DHT22;22513;51.222;6.480;2024-02-04T07:59:30;21.00;58.10
36498;DHT22;22513;51.222;6.480;2024-02-04T08:01:56;21.00;58.20
36498;DHT22;22513;51.222;6.480;2024-02-04T08:04:22;21.10;58.20
36498;DHT22;22513;51.222;6.480;2024-02-04T08:06:47;21.10;58.30
36498;DHT22;22513;51.222;6.480;2024-02-04T08:09:13;21.10;58.30
36498;DHT22;22513;51.222;6.480;2024-02-04T08:11:39;21.10;58.40
36498;DHT22;22513;51.222;6.480;2024-02-04T08:14:05;21.10;58.40
36498;DHT22;22513;51.222;6.480;2024-02-04T08:16:31;21.10;58.50
36498;DHT22;22513;51.222;6.480;2024-02-04T08:18:58;21.10;58.50
36498;DHT22;22513;51.222;6.480;2024-02-04T08:21:23;21.10;58.50
36498;DHT22;22513;51.222;6.480;2024-02-04T08:23:49;21.10;58.50
36498;DHT22;22513;51.222;6.480;2024-02-04T08:26:15;21.10;58.50
36498;DHT22;22513;51.222;6.480;2024-02-04T08:28:41;21.10;58.50
36498;DHT22;22513;51.222;6.480;2024-02-04T08:31:06;21.10;58.50
36498;DHT22;22513;51.222;6.480;2024-02-04T08:33:32;21.10;58.40
36498;DHT22;22513;51.222;6.480;2024-02-04T08:35:57;21.10;58.40
36498;DHT22;22513;51.222;6.480;2024-02-04T08:38:23;21.20;58.40
36498;DHT22;22513;51.222;6.480;2024-02-04T08:40:49;21.10;58.20
36498;DHT22;22513;51.222;6.480;2024-02-04T08:43:14;21.20;58.30
36498;DHT22;22513;51.222;6.480;2024-02-04T08:45:43;21.20;58.30
36498;DHT22;22513;51.222;6.480;2024-02-04T08:48:08;21.20;58.30
36498;DHT22;22513;51.222;6.480;2024-02-04T08:50:34;21.20;58.20
36498;DHT22;22513;51.222;6.480;2024-02-04T08:53:00;21.20;58.20
36498;DHT22;22513;51.222;6.480;2024-02-04T08:55:25;21.20;58.20
36498;DHT22;22513;51.222;6.480;2024-02-04T08:57:51;21.20;58.10
36498;DHT22;22513;51.222;6.480;2024-02-04T09:00:19;21.20;58.10
36498;DHT22;22513;51.222;6.480;2024-02-04T09:02:45;21.20;58.10
36498;DHT22;22513;51.222;6.480;2024-02-04T09:05:12;21.20;58.10
36498;DHT22;22513;51.222;6.480;2024-02-04T09:07:37;21.20;58.10
36498;DHT22;22513;51.222;6.480;2024-02-04T09:10:04;21.20;58.10
36498;DHT22;22513;51.222;6.480;2024-02-04T09:12:30;21.20;58.10
36498;DHT22;22513;51.222;6.480;2024-02-04T09:14:56;21.20;58.10
36498;DHT22;22513;51.222;6.480;2024-02-04T09:17:21;21.20;58.00
36498;DHT22;22513;51.222;6.480;2024-02-04T09:19:47;21.20;58.00
36498;DHT22;22513;51.222;6.480;2024-02-04T09:22:12;21.20;58.00
36498;DHT22;22513;51.222;6.480;2024-02-04T09:24:38;21.20;57.90
36498;DHT22;22513;51.222;6.480;2024-02-04T09:27:04;21.20;57.90
36498;DHT22;22513;51.222;6.480;2024-02-04T09:29:29;21.20;57.90
36498;DHT22;22513;51.222;6.480;2024-02-04T09:31:56;21.20;57.80
36498;DHT22;22513;51.222;6.480;2024-02-04T09:34:22;21.30;57.80
36498;DHT22;22513;51.222;6.480;2024-02-04T09:36:47;21.30;57.80
36498;DHT22;22513;51.222;6.480;2024-02-04T09:39:13;21.30;57.80
36498;DHT22;22513;51.222;6.480;2024-02-04T09:41:38;21.30;57.80
36498;DHT22;22513;51.222;6.480;2024-02-04T09:44:04;21.30;57.70
36498;DHT22;22513;51.222;6.480;2024-02-04T09:46:31;21.30;57.70
36498;DHT22;22513;51.222;6.480;2024-02-04T09:48:57;21.30;57.70
36498;DHT22;22513;51.222;6.480;2024-02-04T09:51:25;21.30;57.70
36498;DHT22;22513;51.222;6.480;2024-02-04T09:53:53;21.30;57.70
36498;DHT22;22513;51.222;6.480;2024-02-04T09:56:21;21.30;57.60
36498;DHT22;22513;51.222;6.480;2024-02-04T09:58:48;21.30;57.60
36498;DHT22;22513;51.222;6.480;2024-02-04T10:01:14;21.30;57.60
36498;DHT22;22513;51.222;6.480;2024-02-04T10:03:41;21.40;57.60
36498;DHT22;22513;51.222;6.480;2024-02-04T10:06:07;21.30;57.50
36498;DHT22;22513;51.222;6.480;2024-02-04T10:08:34;21.30;57.50
36498;DHT22;22513;51.222;6.480;2024-02-04T10:11:00;21.40;57.40
36498;DHT22;22513;51.222;6.480;2024-02-04T10:13:26;21.40;57.40
36498;DHT22;22513;51.222;6.480;2024-02-04T10:15:52;21.40;57.30
36498;DHT22;22513;51.222;6.480;2024-02-04T10:18:17;21.40;57.30
36498;DHT22;22513;51.222;6.480;2024-02-04T10:20:43;21.40;57.30
36498;DHT22;22513;51.222;6.480;2024-02-04T10:23:09;21.50;57.40
36498;DHT22;22513;51.222;6.480;2024-02-04T10:25:35;21.40;57.30
36498;DHT22;22513;51.222;6.480;2024-02-04T10:28:01;21.40;57.30
36498;DHT22;22513;51.222;6.480;2024-02-04T10:30:26;21.40;57.30
36498;DHT22;22513;51.222;6.480;2024-02-04T10:32:53;21.40;57.30
36498;DHT22;22513;51.222;6.480;2024-02-04T10:35:22;21.40;57.30
36498;DHT22;22513;51.222;6.480;2024-02-04T10:37:49;21.40;57.30
36498;DHT22;22513;51.222;6.480;2024-02-04T10:40:14;21.40;57.30
36498;DHT22;22513;51.222;6.480;2024-02-04T10:42:42;21.40;57.20
36498;DHT22;22513;51.222;6.480;2024-02-04T10:45:09;21.40;57.20
36498;DHT22;22513;51.222;6.480;2024-02-04T10:47:38;21.40;57.20
36498;DHT22;22513;51.222;6.480;2024-02-04T10:50:04;21.40;57.20
36498;DHT22;22513;51.222;6.480;2024-02-04T10:52:38;21.40;57.20
36498;DHT22;22513;51.222;6.480;2024-02-04T10:55:11;21.40;57.20
36498;DHT22;22513;51.222;6.480;2024-02-04T10:57:40;21.40;57.20
36498;DHT22;22513;51.222;6.480;2024-02-04T11:00:06;21.40;57.10
36498;DHT22;22513;51.222;6.480;2024-02-04T11:02:38;21.40;57.10
36498;DHT22;22513;51.222;6.480;2024-02-04T11:05:05;21.40;57.10
36498;DHT22;22513;51.222;6.480;2024-02-04T11:07:34;21.40;57.10
36498;DHT22;22513;51.222;6.480;2024-02-04T11:10:01;21.40;57.10
36498;DHT22;22513;51.222;6.480;2024-02-04T11:12:28;21.40;57.00
36498;DHT22;22513;51.222;6.480;2024-02-04T11:14:56;21.40;57.10
36498;DHT22;22513;51.222;6.480;2024-02-04T11:25:48;21.50;57.00
36498;DHT22;22513;51.222;6.480;2024-02-04T11:28:16;21.50;56.90
36498;DHT22;22513;51.222;6.480;2024-02-04T11:33:07;21.60;56.90
36498;DHT22;22513;51.222;6.480;2024-02-04T11:35:33;21.50;56.80
36498;DHT22;22513;51.222;6.480;2024-02-04T11:37:59;21.50;56.80
36498;DHT22;22513;51.222;6.480;2024-02-04T11:40:34;21.50;56.80
36498;DHT22;22513;51.222;6.480;2024-02-04T11:43:14;21.60;56.90
36498;DHT22;22513;51.222;6.480;2024-02-04T11:45:40;21.50;56.80
36498;DHT22;22513;51.222;6.480;2024-02-04T11:48:07;21.60;57.50
36498;DHT22;22513;51.222;6.480;2024-02-04T11:50:34;21.50;56.80
36498;DHT22;22513;51.222;6.480;2024-02-04T11:53:10;21.60;56.80
36498;DHT22;22513;51.222;6.480;2024-02-04T11:55:38;21.50;56.80
36498;DHT22;22513;51.222;6.480;2024-02-04T11:58:05;21.60;56.80
36498;DHT22;22513;51.222;6.480;2024-02-04T12:00:33;21.50;56.80
36498;DHT22;22513;51.222;6.480;2024-02-04T12:03:06;21.60;56.80
36498;DHT22;22513;51.222;6.480;2024-02-04T12:05:34;21.60;56.80
36498;DHT22;22513;51.222;6.480;2024-02-04T12:08:03;21.50;56.70
36498;DHT22;22513;51.222;6.480;2024-02-04T12:10:36;21.60;56.80
36498;DHT22;22513;51.222;6.480;2024-02-04T12:13:03;21.50;56.70
36498;DHT22;22513;51.222;6.480;2024-02-04T12:15:29;21.60;56.80
36498;DHT22;22513;51.222;6.480;2024-02-04T12:18:07;21.60;56.80
36498;DHT22;22513;51.222;6.480;2024-02-04T12:20:33;21.60;56.80
36498;DHT22;22513;51.222;6.480;2024-02-04T12:22:59;21.50;56.70
36498;DHT22;22513;51.222;6.480;2024-02-04T12:25:25;21.50;56.70
36498;DHT22;22513;51.222;6.480;2024-02-04T12:27:53;21.50;56.70
36498;DHT22;22513;51.222;6.480;2024-02-04T12:30:18;21.50;56.70
36498;DHT22;22513;51.222;6.480;2024-02-04T12:32:44;21.50;56.70
36498;DHT22;22513;51.222;6.480;2024-02-04T12:35:15;21.60;56.90
36498;DHT22;22513;51.222;6.480;2024-02-04T12:37:54;21.50;56.70
36498;DHT22;22513;51.222;6.480;2024-02-04T12:40:24;21.50;56.70
36498;DHT22;22513;51.222;6.480;2024-02-04T12:42:54;21.50;56.90
36498;DHT22;22513;51.222;6.480;2024-02-04T12:45:19;21.60;56.70
36498;DHT22;22513;51.222;6.480;2024-02-04T12:47:52;21.60;56.70
36498;DHT22;22513;51.222;6.480;2024-02-04T12:50:18;21.60;56.70
36498;DHT22;22513;51.222;6.480;2024-02-04T12:52:48;21.60;56.70
36498;DHT22;22513;51.222;6.480;2024-02-04T12:55:23;21.50;56.70
36498;DHT22;22513;51.222;6.480;2024-02-04T12:57:49;21.50;56.70
36498;DHT22;22513;51.222;6.480;2024-02-04T13:00:18;21.60;56.70
36498;DHT22;22513;51.222;6.480;2024-02-04T13:02:44;21.50;56.70
36498;DHT22;22513;51.222;6.480;2024-02-04T13:05:10;21.50;56.70
36498;DHT22;22513;51.222;6.480;2024-02-04T13:07:36;21.50;56.80
36498;DHT22;22513;51.222;6.480;2024-02-04T13:10:02;21.50;56.70
36498;DHT22;22513;51.222;6.480;2024-02-04T13:12:27;21.50;56.80
36498;DHT22;22513;51.222;6.480;2024-02-04T13:14:53;21.50;56.80
36498;DHT22;22513;51.222;6.480;2024-02-04T13:17:19;21.50;56.70
36498;DHT22;22513;51.222;6.480;2024-02-04T13:19:44;21.50;56.80
36498;DHT22;22513;51.222;6.480;2024-02-04T13:22:10;21.50;56.70
36498;DHT22;22513;51.222;6.480;2024-02-04T13:24:37;21.50;56.70
36498;DHT22;22513;51.222;6.480;2024-02-04T13:27:02;21.50;56.70
36498;DHT22;22513;51.222;6.480;2024-02-04T13:29:29;21.50;56.70
36498;DHT22;22513;51.222;6.480;2024-02-04T13:31:55;21.50;56.70
36498;DHT22;22513;51.222;6.480;2024-02-04T13:34:21;21.50;56.70
36498;DHT22;22513;51.222;6.480;2024-02-04T13:36:46;21.50;56.70
36498;DHT22;22513;51.222;6.480;2024-02-04T13:39:12;21.50;56.80
36498;DHT22;22513;51.222;6.480;2024-02-04T13:41:41;21.50;56.80
36498;DHT22;22513;51.222;6.480;2024-02-04T13:44:07;21.50;56.80
36498;DHT22;22513;51.222;6.480;2024-02-04T13:46:33;21.50;56.80
36498;DHT22;22513;51.222;6.480;2024-02-04T13:48:59;21.50;56.80
36498;DHT22;22513;51.222;6.480;2024-02-04T13:51:24;21.50;56.80
36498;DHT22;22513;51.222;6.480;2024-02-04T13:53:50;21.50;56.80
36498;DHT22;22513;51.222;6.480;2024-02-04T13:56:16;21.50;56.90
36498;DHT22;22513;51.222;6.480;2024-02-04T13:58:44;21.50;56.90
36498;DHT22;22513;51.222;6.480;2024-02-04T14:01:10;21.50;56.90
36498;DHT22;22513;51.222;6.480;2024-02-04T14:03:36;21.40;56.90
36498;DHT22;22513;51.222;6.480;2024-02-04T14:06:01;21.50;56.90
36498;DHT22;22513;51.222;6.480;2024-02-04T14:08:29;21.40;56.90
36498;DHT22;22513;51.222;6.480;2024-02-04T14:10:55;21.40;56.90
36498;DHT22;22513;51.222;6.480;2024-02-04T14:13:20;21.40;56.90
36498;DHT22;22513;51.222;6.480;2024-02-04T14:15:46;21.40;56.90
36498;DHT22;22513;51.222;6.480;2024-02-04T14:18:12;21.40;56.90
36498;DHT22;22513;51.222;6.480;2024-02-04T14:20:37;21.40;56.90
36498;DHT22;22513;51.222;6.480;2024-02-04T14:23:03;21.40;56.90
36498;DHT22;22513;51.222;6.480;2024-02-04T14:25:28;21.40;56.90
36498;DHT22;22513;51.222;6.480;2024-02-04T14:27:54;21.40;56.90
36498;DHT22;22513;51.222;6.480;2024-02-04T14:30:20;21.40;56.90
36498;DHT22;22513;51.222;6.480;2024-02-04T14:32:46;21.40;56.90
36498;DHT22;22513;51.222;6.480;2024-02-04T14:35:11;21.40;56.90
36498;DHT22;22513;51.222;6.480;2024-02-04T14:37:37;21.40;56.90
36498;DHT22;22513;51.222;6.480;2024-02-04T14:40:05;21.40;56.90
36498;DHT22;22513;51.222;6.480;2024-02-04T14:42:32;21.40;57.60
36498;DHT22;22513;51.222;6.480;2024-02-04T14:44:58;21.40;56.90
36498;DHT22;22513;51.222;6.480;2024-02-04T14:47:27;21.40;56.90
36498;DHT22;22513;51.222;6.480;2024-02-04T14:49:53;21.30;56.90
36498;DHT22;22513;51.222;6.480;2024-02-04T14:52:19;21.40;56.90
36498;DHT22;22513;51.222;6.480;2024-02-04T14:54:45;21.30;56.90
36498;DHT22;22513;51.222;6.480;2024-02-04T14:57:11;21.30;56.90
36498;DHT22;22513;51.222;6.480;2024-02-04T14:59:36;21.40;57.00
36498;DHT22;22513;51.222;6.480;2024-02-04T15:02:06;21.40;57.00
36498;DHT22;22513;51.222;6.480;2024-02-04T15:04:32;21.40;57.00
36498;DHT22;22513;51.222;6.480;2024-02-04T15:06:58;21.30;56.90
36498;DHT22;22513;51.222;6.480;2024-02-04T15:09:24;21.40;57.00
36498;DHT22;22513;51.222;6.480;2024-02-04T15:11:49;21.40;57.00
36498;DHT22;22513;51.222;6.480;2024-02-04T15:14:15;21.40;57.00
36498;DHT22;22513;51.222;6.480;2024-02-04T15:16:42;21.30;57.00
36498;DHT22;22513;51.222;6.480;2024-02-04T15:19:08;21.30;57.00
36498;DHT22;22513;51.222;6.480;2024-02-04T15:21:35;21.30;57.00
36498;DHT22;22513;51.222;6.480;2024-02-04T15:24:01;21.30;57.00
36498;DHT22;22513;51.222;6.480;2024-02-04T15:26:34;21.30;57.00
36498;DHT22;22513;51.222;6.480;2024-02-04T15:29:02;21.30;57.00
36498;DHT22;22513;51.222;6.480;2024-02-04T15:31:29;21.30;57.00
36498;DHT22;22513;51.222;6.480;2024-02-04T15:33:55;21.30;57.00
36498;DHT22;22513;51.222;6.480;2024-02-04T15:36:21;21.30;57.00
36498;DHT22;22513;51.222;6.480;2024-02-04T15:38:47;21.30;57.00
36498;DHT22;22513;51.222;6.480;2024-02-04T15:41:12;21.30;57.00
36498;DHT22;22513;51.222;6.480;2024-02-04T15:43:38;21.30;57.00